CYBWCYRV

Guest
Details From CYBW - Calgary Springbank
To CYRV - REVELSTOKE
Flight Number -
Tags generated
Created
Modified
Stats Distance 145 nm / 268 km
Max Altitude 14,700 ft / 4,481 m
Waypoints 4
Social Downloads 0
Likes 0
Share VATSIM

Download

Looking for another format? Having issues loading an existing format? Contact us
Advertisement - Login to hide

Notes

Basic altitude profile: - Ascent Rate: 1000ft/min - Ascent Speed: 80kts - Cruise Altitude: 8500ft - Cruise Speed: 120kts - Descent Rate: 1000ft/min - Descent Speed: 100kts Options: - Use NATs: yes - Use PACOTS: no - Use low airways: yes - Use high airways: no

Route

CYBW CANOP V304 SPRAE CYRV

ID Type Via Altitude Latitude Longitude Leg Dist Tot Dist Heading (true) Name
O CYBW APT - 0 ft / 0 m 51.11176˚ -114.37654˚ - 0 nm - Calgary Springbank
CANOP FIX - 3,000 ft / 914 m 51.06778˚ -114.59139˚ 8 nm 8 nm 252° / 252° -
SPRAE FIX V304 (AWY-LO) 14,700 ft / 4,481 m 51.00361˚ -115.45667˚ 32 nm 41 nm 264° / 263° -
O CYRV APT - 0 ft / 0 m 50.96667˚ -118.18333˚ 103 nm 144 nm 270° / 268° REVELSTOKE

Altitude Profile

Advertisement - Login to hide

CYBW

Details ICAO CYBW (YBW)
Name Calgary Springbank
Region Canada
Timezone America/Edmonton (UTC-7.0)
Stats Elevation 3,937 ft / 1,200 m (AMSL)
Location 51.111765° -114.376537°
Runways 2
Magnetic Variation 14.238° E

METAR

CYBW 121400Z AUTO 27013KT 9SM FEW210 BKN230 BKN250 09/M13 A3001 RMK SLP192 DENSITY ALT 4000FT

Decode

TAF

TAF TAF CYBW 121238Z 1213/1301 26020G30KT P6SM BKN230 TEMPO 1213/1216 32008KT FM121600 26020G30KT P6SM FEW230 RMK FCST BASED ON AUTO OBS. NXT FCST BY 121800Z

Decode

Departure Runways

ID Width Length Bearing (true) Bearing (mag) Surface Threshold Offset Overrun Length
07 100 ft / 30 m 3,389 ft / 1,033 m 89.99° 75.75° Asphalt 0 ft / 0 m 0 ft / 0 m
16 75 ft / 23 m 3,083 ft / 940 m 180.71° 166.47° Asphalt 0 ft / 0 m 0 ft / 0 m
25 100 ft / 30 m 3,389 ft / 1,033 m 270.01° 255.77° Asphalt 0 ft / 0 m 0 ft / 0 m
34 75 ft / 23 m 3,083 ft / 940 m 0.71° 346.47° Asphalt 0 ft / 0 m 0 ft / 0 m

CYRV

Details ICAO CYRV (YRV)
Name REVELSTOKE
Region Canada
Timezone America/Vancouver (UTC-8.0)
Stats Elevation 1,459 ft / 445 m (AMSL)
Location 50.966665° -118.183335°
Runways 1
Magnetic Variation 15.540° E

METAR

CYRV 121400Z AUTO 32004KT 9SM OVC017 M03/M06 A3053 RMK SLP364

Decode

TAF

Not found

Destination Runways

ID Width Length Bearing (true) Bearing (mag) Surface Threshold Offset Overrun Length
12 75 ft / 23 m 4,793 ft / 1,461 m 137.62° 122.08° Asphalt 0 ft / 0 m 0 ft / 0 m
30 75 ft / 23 m 4,793 ft / 1,461 m 317.63° 302.09° Asphalt 300 ft / 91 m 0 ft / 0 m

Popular Alternatives